createdAt,value
2018-12-08T00:01:02.950Z,81.52
2018-12-08T00:03:31.116Z,81.38
2018-12-08T00:05:59.409Z,81.51
2018-12-08T00:08:27.676Z,83.43
2018-12-08T00:10:55.958Z,83.00
2018-12-08T00:13:24.148Z,82.57
2018-12-08T00:15:52.396Z,82.50
2018-12-08T00:18:20.665Z,82.60
2018-12-08T00:20:49.801Z,82.64
2018-12-08T00:23:18.036Z,82.64
2018-12-08T00:25:46.313Z,82.61
2018-12-08T00:28:14.497Z,82.52
2018-12-08T00:30:53.985Z,82.31
2018-12-08T00:33:22.197Z,81.80
2018-12-08T00:35:50.353Z,82.27
2018-12-08T00:38:18.587Z,82.22
2018-12-08T00:40:46.884Z,82.62
2018-12-08T00:43:15.097Z,82.00
2018-12-08T00:45:43.276Z,82.76
2018-12-08T00:48:11.550Z,83.05
2018-12-08T00:50:39.743Z,82.57
2018-12-08T00:56:01.565Z,81.56
2018-12-08T00:58:29.740Z,81.06
2018-12-08T01:00:57.916Z,82.54
2018-12-08T01:03:26.213Z,84.23
2018-12-08T01:05:54.486Z,83.63
2018-12-08T01:08:22.640Z,83.86
2018-12-08T01:10:50.816Z,82.99
2018-12-08T01:13:19.001Z,83.16
2018-12-08T01:15:47.186Z,83.87
2018-12-08T01:18:15.341Z,84.05
2018-12-08T01:20:43.512Z,84.46
2018-12-08T01:23:11.689Z,83.58
2018-12-08T01:25:39.856Z,84.31
2018-12-08T01:28:08.012Z,83.74
2018-12-08T01:30:37.164Z,83.67
2018-12-08T01:33:05.396Z,83.01
2018-12-08T01:35:33.681Z,82.77
2018-12-08T01:38:01.965Z,83.14
2018-12-08T01:40:30.121Z,82.81
2018-12-08T01:42:58.539Z,82.40
2018-12-08T01:45:26.881Z,82.02
2018-12-08T01:47:55.057Z,81.63
2018-12-08T01:50:23.336Z,81.76
2018-12-08T01:52:51.672Z,81.90
2018-12-08T01:55:19.900Z,80.82
2018-12-08T01:57:48.068Z,80.92
2018-12-08T02:00:16.461Z,81.13
2018-12-08T02:02:44.937Z,81.66
2018-12-08T02:05:13.407Z,81.09
2018-12-08T02:07:41.577Z,81.50
2018-12-08T02:10:09.889Z,81.11
2018-12-08T02:12:38.132Z,81.50
2018-12-08T02:15:06.547Z,81.23
2018-12-08T02:17:35.380Z,81.06
2018-12-08T02:20:04.384Z,80.86
2018-12-08T02:22:32.612Z,79.52
2018-12-08T02:25:00.845Z,80.10
2018-12-08T02:27:29.078Z,79.58
2018-12-08T02:29:57.283Z,80.44
2018-12-08T02:32:25.577Z,80.46
2018-12-08T02:34:53.864Z,80.62
2018-12-08T02:37:22.222Z,80.00
2018-12-08T02:39:50.494Z,80.53
2018-12-08T02:42:18.677Z,80.38
2018-12-08T02:44:46.901Z,80.76
2018-12-08T02:47:15.950Z,80.05
2018-12-08T02:49:44.149Z,79.46
2018-12-08T02:52:12.506Z,79.49
2018-12-08T02:54:40.768Z,79.75
2018-12-08T02:57:09.053Z,78.70
2018-12-08T02:59:37.309Z,79.02
2018-12-08T03:02:06.113Z,79.13
2018-12-08T03:04:34.401Z,79.13
2018-12-08T03:07:02.641Z,79.20
2018-12-08T03:09:31.028Z,79.00
2018-12-08T03:11:59.258Z,80.51
2018-12-08T03:14:27.823Z,79.69
2018-12-08T03:16:56.773Z,79.01
2018-12-08T03:19:25.060Z,78.79
2018-12-08T03:21:53.276Z,78.72
2018-12-08T03:24:21.652Z,78.38
2018-12-08T03:26:49.811Z,78.67
2018-12-08T03:29:18.076Z,78.32
2018-12-08T03:31:46.347Z,78.69
2018-12-08T03:34:14.668Z,78.55
2018-12-08T03:36:42.992Z,79.12
2018-12-08T03:39:11.261Z,77.87
2018-12-08T03:41:39.611Z,77.78
2018-12-08T03:44:08.132Z,78.17
2018-12-08T03:46:36.309Z,77.46
2018-12-08T03:49:04.586Z,77.88
2018-12-08T03:51:32.728Z,77.89
2018-12-08T03:54:00.893Z,78.52
2018-12-08T03:56:29.370Z,78.25
2018-12-08T03:58:58.368Z,78.62
2018-12-08T04:01:26.565Z,78.66
2018-12-08T04:03:54.739Z,78.77
2018-12-08T04:06:23.032Z,77.95
2018-12-08T04:08:51.258Z,77.94
2018-12-08T04:11:19.485Z,77.88
2018-12-08T04:13:47.646Z,77.71
2018-12-08T04:16:15.929Z,78.59
2018-12-08T04:18:44.201Z,77.63
2018-12-08T04:21:12.499Z,77.76
2018-12-08T04:23:41.587Z,77.13
2018-12-08T04:26:09.739Z,77.03
2018-12-08T04:28:37.903Z,77.22
2018-12-08T04:31:06.053Z,77.49
2018-12-08T04:33:34.247Z,77.58
2018-12-08T04:36:02.441Z,78.93
2018-12-08T04:38:30.652Z,78.11
2018-12-08T04:40:58.867Z,78.67
2018-12-08T04:43:27.033Z,77.15
2018-12-08T04:45:55.953Z,77.72
2018-12-08T04:48:24.152Z,77.46
2018-12-08T04:50:52.376Z,78.19
2018-12-08T04:53:20.558Z,78.08
2018-12-08T04:55:48.729Z,77.21
2018-12-08T04:58:17.553Z,77.43
2018-12-08T05:00:45.896Z,79.31
2018-12-08T05:03:14.049Z,79.90
2018-12-08T05:05:42.270Z,80.61
2018-12-08T05:08:12.092Z,80.48
2018-12-08T05:10:40.377Z,80.09
2018-12-08T05:13:08.696Z,79.23
2018-12-08T05:15:36.989Z,79.38
2018-12-08T05:18:05.157Z,78.86
2018-12-08T05:20:33.469Z,78.99
2018-12-08T05:23:01.615Z,78.35
2018-12-08T05:25:29.892Z,78.68
2018-12-08T05:27:58.064Z,78.23
2018-12-08T05:30:26.267Z,78.18
2018-12-08T05:32:54.428Z,78.92
2018-12-08T05:35:22.582Z,77.62
2018-12-08T05:37:50.869Z,78.34
2018-12-08T05:40:19.173Z,78.65
2018-12-08T05:42:47.348Z,79.28
2018-12-08T05:45:15.590Z,78.66
2018-12-08T05:47:43.757Z,77.48
2018-12-08T05:50:11.940Z,78.00
2018-12-08T05:52:40.097Z,78.31
2018-12-08T05:55:08.389Z,78.10
2018-12-08T05:57:36.597Z,77.69
2018-12-08T06:00:05.942Z,78.32
2018-12-08T06:02:34.129Z,78.78
2018-12-08T06:05:02.274Z,77.83
2018-12-08T06:07:30.517Z,78.53
2018-12-08T06:09:58.713Z,78.87
2018-12-08T06:12:26.857Z,78.21
2018-12-08T06:14:54.980Z,77.55
2018-12-08T06:17:23.215Z,77.18
2018-12-08T06:19:51.417Z,76.21
2018-12-08T06:22:19.667Z,77.29
2018-12-08T06:24:47.883Z,75.72
2018-12-08T06:27:26.317Z,76.28
2018-12-08T06:29:54.480Z,75.67
2018-12-08T06:32:22.622Z,76.03
2018-12-08T06:34:50.940Z,76.18
2018-12-08T06:37:19.080Z,76.27
2018-12-08T06:39:47.334Z,75.99
2018-12-08T06:42:15.488Z,76.20
2018-12-08T06:44:43.748Z,76.54
2018-12-08T06:47:11.934Z,76.60
2018-12-08T06:49:40.104Z,76.80
2018-12-08T06:52:08.298Z,76.54
2018-12-08T06:54:36.428Z,76.75
2018-12-08T06:57:04.593Z,76.90
2018-12-08T06:59:32.870Z,76.83
2018-12-08T07:02:01.168Z,76.60
2018-12-08T07:04:29.472Z,77.01
2018-12-08T07:06:57.799Z,76.30
2018-12-08T07:09:26.078Z,77.58
2018-12-08T07:11:54.364Z,76.32
2018-12-08T07:14:22.518Z,77.10
2018-12-08T07:16:50.811Z,77.32
2018-12-08T07:19:18.982Z,77.63
2018-12-08T07:21:47.157Z,77.76
2018-12-08T07:24:15.525Z,77.35
2018-12-08T07:26:43.837Z,79.04
2018-12-08T07:29:12.105Z,80.24
2018-12-08T07:31:40.365Z,80.68
2018-12-08T07:34:08.528Z,80.59
2018-12-08T07:36:36.949Z,80.55
2018-12-08T07:39:06.530Z,80.10
2018-12-08T07:41:34.801Z,79.38
2018-12-08T07:44:02.973Z,79.92
2018-12-08T07:46:31.151Z,81.74
2018-12-08T07:48:59.426Z,83.84
2018-12-08T07:51:27.938Z,85.32
2018-12-08T07:53:56.305Z,85.35
2018-12-08T07:56:24.569Z,85.31
2018-12-08T07:58:52.807Z,85.37
2018-12-08T08:01:21.334Z,85.19
2018-12-08T08:03:49.478Z,85.58
2018-12-08T08:06:18.481Z,84.67
2018-12-08T08:08:46.842Z,84.45
2018-12-08T08:11:15.016Z,85.29
2018-12-08T08:13:43.214Z,84.36
2018-12-08T08:16:11.381Z,84.81
2018-12-08T08:18:39.525Z,84.70
2018-12-08T08:21:07.729Z,83.71
2018-12-08T08:23:35.906Z,84.33
2018-12-08T08:26:04.176Z,84.38
2018-12-08T08:28:32.345Z,83.48
2018-12-08T08:31:00.508Z,83.84
2018-12-08T08:33:28.737Z,83.40
2018-12-08T08:35:56.965Z,83.08
2018-12-08T08:38:25.140Z,83.48
2018-12-08T08:40:53.268Z,83.12
2018-12-08T08:43:21.492Z,83.04
2018-12-08T08:45:49.722Z,83.16
2018-12-08T08:48:17.876Z,83.08
2018-12-08T08:50:46.141Z,83.29
2018-12-08T08:53:14.382Z,82.47
2018-12-08T08:55:42.666Z,82.58
2018-12-08T08:58:11.415Z,83.62
2018-12-08T09:00:39.860Z,83.83
2018-12-08T09:03:08.010Z,83.54
2018-12-08T09:05:36.219Z,83.72
2018-12-08T09:08:04.464Z,83.39
2018-12-08T09:10:32.622Z,83.72
2018-12-08T09:13:00.808Z,82.84
2018-12-08T09:15:28.981Z,82.99
2018-12-08T09:17:57.152Z,82.26
2018-12-08T09:20:25.975Z,82.66
2018-12-08T09:22:54.212Z,81.96
2018-12-08T09:25:22.410Z,81.37
2018-12-08T09:27:50.562Z,81.66
2018-12-08T09:30:18.730Z,80.97
2018-12-08T09:32:46.914Z,81.42
2018-12-08T09:35:15.204Z,81.25
2018-12-08T09:37:43.348Z,81.33
2018-12-08T09:40:11.533Z,81.82
2018-12-08T09:42:39.820Z,82.29
2018-12-08T09:45:08.461Z,84.25
2018-12-08T09:47:36.673Z,83.01
2018-12-08T09:50:06.311Z,83.01
2018-12-08T09:52:34.545Z,82.78
2018-12-08T09:55:02.844Z,83.10
2018-12-08T09:57:31.126Z,83.90
2018-12-08T09:59:59.291Z,82.72
2018-12-08T10:02:27.428Z,84.55
2018-12-08T10:04:55.568Z,84.79
2018-12-08T10:07:23.796Z,84.86
2018-12-08T10:09:52.209Z,84.46
2018-12-08T10:12:20.358Z,84.07
2018-12-08T10:14:48.544Z,84.20
2018-12-08T10:17:16.820Z,83.47
2018-12-08T10:19:44.987Z,82.51
2018-12-08T10:22:13.278Z,83.46
2018-12-08T10:24:41.425Z,83.03
2018-12-08T10:27:09.773Z,82.65
2018-12-08T10:29:37.990Z,83.20
2018-12-08T10:32:05.361Z,83.46
2018-12-08T10:34:33.609Z,83.91
2018-12-08T10:37:01.766Z,83.52
2018-12-08T10:39:30.178Z,82.86
2018-12-08T10:41:58.326Z,82.96
2018-12-08T10:44:26.518Z,83.39
2018-12-08T10:46:54.689Z,83.39
2018-12-08T10:49:22.992Z,84.26
2018-12-08T10:51:51.347Z,83.78
2018-12-08T10:54:19.514Z,83.49
2018-12-08T10:56:48.261Z,83.17
2018-12-08T10:59:16.504Z,82.10
2018-12-08T11:01:49.933Z,82.46
2018-12-08T11:04:18.203Z,81.71
2018-12-08T11:06:46.325Z,81.67
2018-12-08T11:09:14.497Z,81.40
2018-12-08T11:11:42.636Z,81.07
2018-12-08T11:14:10.876Z,81.24
2018-12-08T11:16:39.046Z,79.64
2018-12-08T11:19:07.385Z,79.62
2018-12-08T11:21:35.609Z,80.10
2018-12-08T11:24:03.866Z,79.69
2018-12-08T11:26:32.135Z,78.91
2018-12-08T11:29:00.276Z,78.54
2018-12-08T11:31:28.548Z,77.80
2018-12-08T11:33:56.680Z,77.29
2018-12-08T11:36:24.900Z,77.09
2018-12-08T11:38:53.181Z,76.79
2018-12-08T11:41:21.353Z,76.59
2018-12-08T11:43:49.651Z,75.87
2018-12-08T11:46:18.183Z,76.15
2018-12-08T11:48:46.369Z,76.80
2018-12-08T11:51:14.572Z,76.81
2018-12-08T11:53:42.848Z,75.48
2018-12-08T11:56:11.354Z,75.44
2018-12-08T11:58:39.582Z,76.26
2018-12-08T12:01:07.787Z,75.76
2018-12-08T12:03:35.945Z,75.78
2018-12-08T12:06:04.283Z,76.29
2018-12-08T12:08:32.512Z,76.89
2018-12-08T12:11:00.645Z,77.56
2018-12-08T12:13:28.980Z,77.60
2018-12-08T12:15:57.257Z,77.08
2018-12-08T12:18:25.515Z,78.10
2018-12-08T12:20:54.196Z,78.03
2018-12-08T12:23:22.364Z,77.54
2018-12-08T12:25:50.710Z,77.18
2018-12-08T12:28:19.818Z,76.97
2018-12-08T12:30:48.304Z,76.75
2018-12-08T12:33:16.521Z,76.72
2018-12-08T12:35:44.736Z,76.61
2018-12-08T12:38:13.032Z,76.66
2018-12-08T12:40:41.192Z,76.79
2018-12-08T12:43:09.753Z,77.56
2018-12-08T12:45:38.060Z,77.78
2018-12-08T12:48:06.341Z,78.12
2018-12-08T12:50:34.607Z,78.37
2018-12-08T12:53:02.887Z,78.39
2018-12-08T12:55:31.205Z,79.44
2018-12-08T12:57:59.437Z,81.23
2018-12-08T13:00:27.721Z,82.12
2018-12-08T13:02:55.889Z,82.77
2018-12-08T13:05:24.072Z,84.71
2018-12-08T13:07:52.231Z,84.41
2018-12-08T13:10:20.448Z,85.00
2018-12-08T13:12:48.592Z,84.96
2018-12-08T13:15:16.865Z,84.58
2018-12-08T13:17:45.143Z,85.42
2018-12-08T13:20:13.327Z,84.94
2018-12-08T13:22:41.504Z,85.56
2018-12-08T13:25:23.652Z,84.67
2018-12-08T13:27:51.800Z,84.83
2018-12-08T13:30:20.265Z,85.32
2018-12-08T13:32:48.469Z,85.38
2018-12-08T13:35:57.813Z,84.46
2018-12-08T13:38:26.858Z,84.02
2018-12-08T13:40:55.148Z,84.58
2018-12-08T13:43:23.286Z,85.09
2018-12-08T13:45:51.681Z,85.36
2018-12-08T13:48:21.744Z,84.32
2018-12-08T13:50:50.165Z,84.51
2018-12-08T13:53:18.780Z,83.96
2018-12-08T13:55:47.037Z,83.79
2018-12-08T13:58:15.219Z,82.95
2018-12-08T14:00:43.464Z,82.02
2018-12-08T14:03:11.648Z,81.49
2018-12-08T14:05:39.817Z,81.94
2018-12-08T14:08:08.198Z,80.96
2018-12-08T14:10:36.520Z,79.87
2018-12-08T14:13:04.788Z,80.57
2018-12-08T14:15:33.053Z,79.14
2018-12-08T14:18:01.329Z,80.05
2018-12-08T14:20:31.590Z,79.41
2018-12-08T14:22:59.816Z,78.46
2018-12-08T14:25:28.288Z,79.18
2018-12-08T14:27:56.496Z,79.03
2018-12-08T14:30:25.831Z,78.44
2018-12-08T14:32:54.063Z,79.20
2018-12-08T14:35:22.304Z,77.66
2018-12-08T14:37:50.777Z,78.33
2018-12-08T14:40:18.934Z,77.98
2018-12-08T14:42:47.195Z,77.40
2018-12-08T14:45:15.633Z,76.53
2018-12-08T14:47:43.925Z,77.57
2018-12-08T14:50:12.332Z,76.87
2018-12-08T14:52:40.572Z,77.22
2018-12-08T14:55:10.131Z,76.44
2018-12-08T14:57:38.453Z,76.41
2018-12-08T15:00:10.801Z,77.17
2018-12-08T15:02:39.068Z,76.49
2018-12-08T15:05:09.593Z,76.30
2018-12-08T15:07:37.992Z,76.56
2018-12-08T15:10:09.212Z,77.68
2018-12-08T15:12:37.456Z,76.98
2018-12-08T15:15:06.600Z,77.42
2018-12-08T15:17:34.796Z,77.98
2018-12-08T15:20:03.195Z,77.66
2018-12-08T15:22:31.336Z,77.33
2018-12-08T15:24:59.478Z,77.33
2018-12-08T15:27:27.725Z,77.78
2018-12-08T15:29:55.981Z,77.57
2018-12-08T15:32:24.213Z,77.20
2018-12-08T15:34:52.453Z,77.33
2018-12-08T15:37:20.673Z,76.28
2018-12-08T15:39:48.913Z,76.98
2018-12-08T15:42:17.153Z,76.64
2018-12-08T15:44:46.961Z,75.36
2018-12-08T15:47:15.345Z,75.81
2018-12-08T15:49:43.571Z,76.41
2018-12-08T15:52:11.881Z,76.10
2018-12-08T15:54:40.045Z,76.10
2018-12-08T15:57:08.323Z,76.03
2018-12-08T15:59:36.488Z,75.73
2018-12-08T16:02:04.658Z,76.45
2018-12-08T16:04:33.010Z,76.05
2018-12-08T16:07:01.242Z,75.58
2018-12-08T16:09:29.710Z,75.76
2018-12-08T16:11:57.840Z,76.17
2018-12-08T16:14:26.048Z,74.94
2018-12-08T16:16:54.316Z,74.91
2018-12-08T16:19:22.613Z,74.83
2018-12-08T16:21:50.764Z,75.17
2018-12-08T16:24:18.950Z,75.27
2018-12-08T16:26:49.381Z,74.61
2018-12-08T16:29:17.615Z,75.45
2018-12-08T16:31:45.813Z,74.70
2018-12-08T16:34:14.201Z,75.07
2018-12-08T16:36:42.459Z,74.99
2018-12-08T16:39:10.601Z,74.56
2018-12-08T16:41:38.853Z,74.28
2018-12-08T16:44:07.098Z,75.19
2018-12-08T16:46:35.232Z,75.49
2018-12-08T16:49:03.753Z,75.31
2018-12-08T16:51:32.012Z,76.35
2018-12-08T16:54:00.523Z,76.65
2018-12-08T16:56:28.754Z,77.41
2018-12-08T16:58:57.070Z,78.06
2018-12-08T17:01:25.232Z,78.61
2018-12-08T17:03:53.562Z,78.69
2018-12-08T17:06:21.807Z,79.51
2018-12-08T17:08:50.066Z,79.01
2018-12-08T17:11:18.341Z,78.58
2018-12-08T17:13:46.540Z,78.79
2018-12-08T17:16:14.692Z,79.51
2018-12-08T17:21:34.855Z,80.92
2018-12-08T17:24:03.066Z,81.22
2018-12-08T17:26:31.353Z,80.88
2018-12-08T17:28:59.517Z,81.37
2018-12-08T17:31:27.665Z,80.92
2018-12-08T17:33:55.806Z,81.96
2018-12-08T17:36:24.065Z,81.03
2018-12-08T17:38:52.234Z,81.38
2018-12-08T17:41:20.385Z,81.86
2018-12-08T17:43:48.529Z,82.13
2018-12-08T17:46:16.737Z,82.63
2018-12-08T17:48:44.973Z,82.96
2018-12-08T17:51:13.180Z,82.19
2018-12-08T17:53:41.525Z,81.76
2018-12-08T17:56:09.733Z,81.63
2018-12-08T17:58:37.888Z,82.07
2018-12-08T18:01:06.201Z,82.07
2018-12-08T18:03:34.445Z,82.22
2018-12-08T18:06:02.705Z,81.55
2018-12-08T18:08:31.042Z,82.31
2018-12-08T18:10:59.597Z,81.28
2018-12-08T18:13:27.761Z,81.37
2018-12-08T18:15:55.959Z,81.40
2018-12-08T18:18:24.103Z,81.95
2018-12-08T18:20:52.926Z,81.93
2018-12-08T18:23:21.565Z,81.50
2018-12-08T18:25:49.807Z,81.29
2018-12-08T18:28:18.066Z,81.28
2018-12-08T18:30:46.278Z,82.66
2018-12-08T18:33:14.493Z,83.38
2018-12-08T18:35:42.659Z,83.23
2018-12-08T18:38:10.828Z,83.82
2018-12-08T18:40:39.078Z,84.86
2018-12-08T18:43:07.282Z,84.86
2018-12-08T18:45:35.537Z,86.46
2018-12-08T18:48:03.840Z,86.76
2018-12-08T18:50:32.013Z,86.83
2018-12-08T18:53:00.177Z,86.97
2018-12-08T18:55:28.349Z,87.10
2018-12-08T18:57:56.585Z,87.03
2018-12-08T19:00:24.846Z,88.03
2018-12-08T19:02:53.005Z,87.72
2018-12-08T19:05:21.145Z,87.38
2018-12-08T19:07:49.553Z,89.18
2018-12-08T19:10:18.109Z,89.79
2018-12-08T19:12:46.484Z,89.59
2018-12-08T19:15:14.783Z,90.07
2018-12-08T19:17:43.048Z,89.84
2018-12-08T19:20:11.264Z,89.42
2018-12-08T19:22:39.509Z,90.87
2018-12-08T19:25:08.320Z,90.56
2018-12-08T19:27:36.553Z,90.61
2018-12-08T19:30:06.659Z,90.20
2018-12-08T19:32:36.266Z,91.14
2018-12-08T19:35:06.165Z,90.49
2018-12-08T19:37:34.296Z,91.06
2018-12-08T19:40:07.385Z,91.11
2018-12-08T19:42:40.946Z,91.29
2018-12-08T19:45:11.423Z,90.80
2018-12-08T19:47:41.092Z,91.35
2018-12-08T19:50:12.133Z,91.21
2018-12-08T19:52:40.239Z,90.67
2018-12-08T19:55:08.987Z,90.45
2018-12-08T19:57:40.417Z,91.21
2018-12-08T20:00:13.602Z,90.35
2018-12-08T20:02:41.934Z,91.29
2018-12-08T20:05:10.317Z,90.88
2018-12-08T20:07:38.674Z,90.72
2018-12-08T20:10:07.366Z,91.06
2018-12-08T20:12:36.428Z,90.39
2018-12-08T20:15:05.470Z,90.71
2018-12-08T20:17:34.022Z,90.91
2018-12-08T20:20:02.328Z,90.93
2018-12-08T20:22:31.483Z,92.29
2018-12-08T20:24:59.846Z,92.71
2018-12-08T20:27:28.290Z,92.79
2018-12-08T20:29:56.529Z,94.14
2018-12-08T20:32:24.673Z,94.00
2018-12-08T20:34:52.889Z,95.07
2018-12-08T20:37:21.173Z,95.36
2018-12-08T20:39:49.312Z,95.34
2018-12-08T20:42:17.504Z,95.46
2018-12-08T20:44:45.760Z,95.37
2018-12-08T20:47:14.061Z,95.28
2018-12-08T20:49:42.229Z,94.75
2018-12-08T20:52:10.415Z,95.30
2018-12-08T20:54:38.568Z,94.46
2018-12-08T20:57:06.758Z,94.75
2018-12-08T20:59:35.988Z,95.04
2018-12-08T21:02:04.851Z,94.75
2018-12-08T21:04:33.076Z,94.58
2018-12-08T21:07:01.281Z,94.10
2018-12-08T21:09:29.448Z,93.68
2018-12-08T21:11:57.591Z,92.80
2018-12-08T21:14:25.994Z,92.62
2018-12-08T21:16:55.993Z,92.67
2018-12-08T21:19:24.329Z,91.67
2018-12-08T21:21:52.733Z,91.71
2018-12-08T21:24:20.861Z,91.96
2018-12-08T21:26:49.192Z,91.82
2018-12-08T21:29:17.352Z,91.10
2018-12-08T21:31:45.573Z,91.46
2018-12-08T21:34:13.846Z,91.67
2018-12-08T21:36:41.980Z,91.15
2018-12-08T21:39:10.225Z,90.63
2018-12-08T21:41:38.489Z,89.18
2018-12-08T21:44:07.889Z,89.31
2018-12-08T21:46:36.312Z,88.20
2018-12-08T21:49:04.606Z,87.36
2018-12-08T21:51:32.791Z,87.49
2018-12-08T21:54:00.932Z,88.92
2018-12-08T21:56:29.125Z,88.29
2018-12-08T21:58:57.345Z,88.88
2018-12-08T22:01:25.622Z,88.32
2018-12-08T22:03:53.857Z,87.67
2018-12-08T22:06:22.185Z,87.69
2018-12-08T22:08:50.558Z,87.05
2018-12-08T22:11:18.738Z,87.25
2018-12-08T22:13:46.950Z,86.66
2018-12-08T22:16:15.148Z,86.23
2018-12-08T22:18:43.301Z,85.59
2018-12-08T22:21:11.618Z,85.75
2018-12-08T22:23:39.835Z,85.94
2018-12-08T22:26:08.076Z,85.23
2018-12-08T22:28:36.248Z,85.13
2018-12-08T22:31:04.528Z,84.74
2018-12-08T22:33:32.777Z,84.33
2018-12-08T22:36:01.133Z,82.99
2018-12-08T22:38:29.460Z,82.96
2018-12-08T22:40:57.604Z,82.92
2018-12-08T22:43:25.754Z,83.14
2018-12-08T22:45:53.952Z,83.04
2018-12-08T22:48:22.101Z,82.75
2018-12-08T22:50:50.332Z,82.37
2018-12-08T22:53:18.577Z,82.43
2018-12-08T22:55:54.056Z,82.61
2018-12-08T22:58:22.196Z,83.00
2018-12-08T23:00:52.409Z,83.26
2018-12-08T23:03:20.697Z,83.35
2018-12-08T23:05:49.075Z,83.25
2018-12-08T23:08:17.269Z,84.19
2018-12-08T23:10:45.439Z,83.79
2018-12-08T23:13:13.665Z,82.74
2018-12-08T23:15:41.925Z,82.69
2018-12-08T23:18:09.657Z,82.54
2018-12-08T23:20:37.904Z,81.66
2018-12-08T23:23:06.400Z,81.39
2018-12-08T23:25:34.787Z,82.46
2018-12-08T23:28:03.144Z,82.33
2018-12-08T23:30:31.345Z,84.29
2018-12-08T23:32:59.527Z,85.40
2018-12-08T23:35:27.774Z,86.66
2018-12-08T23:37:56.076Z,88.11
2018-12-08T23:40:24.333Z,89.23
2018-12-08T23:42:52.505Z,91.43
2018-12-08T23:45:20.673Z,93.53
2018-12-08T23:47:48.837Z,94.80
2018-12-08T23:50:17.081Z,95.36
2018-12-08T23:52:45.265Z,94.39
2018-12-08T23:55:13.454Z,94.30
2018-12-08T23:57:41.654Z,93.87
